Clarkia, ID

3:27 AM PDT on September 02, 2014 (GMT -0700)
ITD Shoshone County Line ID US | Change Station
CLOSE
Current Station
Personal Weather Station
Location: Clarkia, ID
Elevation: 2883 ft
Nearby Weather Stations

Elev 2883 ft 46.97 °N, 116.28 °W | Updated 39 minutes ago

Clear
Clear
39 °F
Feels Like 39 °F
N
0
Wind Variable Wind from ESE
Gusts 0.0 mph

Today
High -- | Low -- °F
--% Chance of Precip.
Yesterday
High -- | Low -- °F
Precip. -- in
6:05 AM 7:22 PM
Waxing Crescent, 50% visible
Pressure 29.92 in
Visibility 10.0 miles
Clouds Clear
Windchill 39 °F
Dew Point 39 °F
Humidity 98%
Rainfall 0.00 in
Snow Depth 0 in
UV 0 out of 12
Pollen 6.70 out of 12
Air Quality Not available.
Flu Activity Not available.
METAR KPUW 020953Z AUTO 06004KT 10SM CLR 13/04 A2994 RMK AO2 SLP131 T01280039

More Conditions Fewer Conditions

Pressure 29.92 in
Visibility 10.0 miles
Clouds Clear
Windchill 39 °F
Dew Point 39 °F
Humidity 98%
Rainfall 0.00 in
Snow Depth 0 in
UV 0 out of 12
Pollen 6.70 out of 12
Air Quality Not available.
Flu Activity Not available.
METAR KPUW 020953Z AUTO 06004KT 10SM CLR 13/04 A2994 RMK AO2 SLP131 T01280039

More Conditions Fewer Conditions

10-Day Weather Forecast

Almanac

Astronomy

Sep. 02, 2014 Rise Set
Actual Time 6:05 AM PDT 7:22 PM PDT
Civil Twilight 5:34 AM PDT 7:53 PM PDT
Nautical Twilight 4:56 AM PDT 8:31 PM PDT
Astronomical Twilight 4:15 AM PDT 9:12 PM PDT
Moon 2:22 PM PDT 11:52 PM PDT
Length of Visible Light 14h 19m
Length of Day
13h 16m
Tomorrow will be 3m 16s shorter.
Waxing Crescent, 50% of the Moon is Illuminated
Today
Waxing Crescent
Sep 2
First Quarter
Sep 8
Full
Sep 15
Last Quarter
Sep 24
New

Today's Extremes

State Highs State Lows

Community

WunderPhotos

Upload Photos

1,749,611 photos uploaded!

WunderBlogs® & News

Nearby

Snow Depth

Station Depth Elevation
Sherwin 0 in 3200 ft
Mica Creek 1 in 4750 ft
Lost Lake 0 in 6110 ft
Elk Butte 0 in 5690 ft
Moscow Mountain 1 in 4700 ft

Earthquake Activity

City Distance Mag. Time & Date
No recent earthquake activity has been reported nearby.
Minimum magnitude displayed is 2.5.

Coastal Water Temperatures

Place Temperature
No Stations Reporting

Nearby Weather Stations